sensor_id;sensor_type;location;lat;lon;timestamp;P1;durP1;ratioP1;P2;durP2;ratioP2
39032;SDS011;24794;51.982;5.878;2023-07-28T00:00:54;13.45;;;10.20;;
39032;SDS011;24794;51.982;5.878;2023-07-28T00:01:54;11.27;;;9.50;;
39032;SDS011;24794;51.982;5.878;2023-07-28T00:02:55;12.10;;;10.25;;
39032;SDS011;24794;51.982;5.878;2023-07-28T00:03:55;9.70;;;8.70;;
39032;SDS011;24794;51.982;5.878;2023-07-28T00:04:57;10.57;;;9.48;;
39032;SDS011;24794;51.982;5.878;2023-07-28T00:05:58;10.18;;;9.13;;
39032;SDS011;24794;51.982;5.878;2023-07-28T00:06:58;10.95;;;8.85;;
39032;SDS011;24794;51.982;5.878;2023-07-28T00:07:59;11.95;;;9.50;;
39032;SDS011;24794;51.982;5.878;2023-07-28T00:08:59;9.43;;;8.27;;
39032;SDS011;24794;51.982;5.878;2023-07-28T00:10:00;10.82;;;8.77;;
39032;SDS011;24794;51.982;5.878;2023-07-28T00:11:01;13.30;;;10.23;;
39032;SDS011;24794;51.982;5.878;2023-07-28T00:12:01;10.60;;;9.50;;
39032;SDS011;24794;51.982;5.878;2023-07-28T00:13:02;10.63;;;9.52;;
39032;SDS011;24794;51.982;5.878;2023-07-28T00:14:03;11.38;;;10.10;;
39032;SDS011;24794;51.982;5.878;2023-07-28T00:15:03;9.55;;;8.18;;
39032;SDS011;24794;51.982;5.878;2023-07-28T00:16:04;12.88;;;9.05;;
39032;SDS011;24794;51.982;5.878;2023-07-28T00:17:05;11.48;;;10.38;;
39032;SDS011;24794;51.982;5.878;2023-07-28T00:18:06;11.10;;;9.20;;
39032;SDS011;24794;51.982;5.878;2023-07-28T00:19:06;10.23;;;9.23;;
39032;SDS011;24794;51.982;5.878;2023-07-28T00:20:07;9.75;;;8.77;;
39032;SDS011;24794;51.982;5.878;2023-07-28T00:21:08;11.13;;;8.93;;
39032;SDS011;24794;51.982;5.878;2023-07-28T00:22:08;10.00;;;9.00;;
39032;SDS011;24794;51.982;5.878;2023-07-28T00:23:09;13.30;;;10.73;;
39032;SDS011;24794;51.982;5.878;2023-07-28T00:24:09;11.65;;;9.65;;
39032;SDS011;24794;51.982;5.878;2023-07-28T00:25:10;11.15;;;9.63;;
39032;SDS011;24794;51.982;5.878;2023-07-28T00:26:10;10.07;;;8.85;;
39032;SDS011;24794;51.982;5.878;2023-07-28T00:27:11;9.85;;;8.55;;
39032;SDS011;24794;51.982;5.878;2023-07-28T00:28:14;17.42;;;11.43;;
39032;SDS011;24794;51.982;5.878;2023-07-28T00:29:15;14.82;;;10.93;;
39032;SDS011;24794;51.982;5.878;2023-07-28T00:30:15;11.68;;;10.23;;
39032;SDS011;24794;51.982;5.878;2023-07-28T00:31:16;11.60;;;10.05;;
39032;SDS011;24794;51.982;5.878;2023-07-28T00:32:16;10.55;;;9.45;;
39032;SDS011;24794;51.982;5.878;2023-07-28T00:33:17;9.10;;;8.18;;
39032;SDS011;24794;51.982;5.878;2023-07-28T00:34:17;11.32;;;10.13;;
39032;SDS011;24794;51.982;5.878;2023-07-28T00:35:18;13.30;;;9.52;;
39032;SDS011;24794;51.982;5.878;2023-07-28T00:36:18;9.70;;;8.70;;
39032;SDS011;24794;51.982;5.878;2023-07-28T00:37:19;13.32;;;9.60;;
39032;SDS011;24794;51.982;5.878;2023-07-28T00:38:19;12.85;;;10.50;;
39032;SDS011;24794;51.982;5.878;2023-07-28T00:39:20;11.02;;;9.93;;
39032;SDS011;24794;51.982;5.878;2023-07-28T00:40:21;9.52;;;8.20;;
39032;SDS011;24794;51.982;5.878;2023-07-28T00:41:22;9.23;;;8.32;;
39032;SDS011;24794;51.982;5.878;2023-07-28T00:42:23;10.75;;;9.18;;
39032;SDS011;24794;51.982;5.878;2023-07-28T00:43:23;13.55;;;9.55;;
39032;SDS011;24794;51.982;5.878;2023-07-28T00:44:24;10.20;;;8.70;;
39032;SDS011;24794;51.982;5.878;2023-07-28T00:45:24;10.88;;;9.38;;
39032;SDS011;24794;51.982;5.878;2023-07-28T00:46:25;11.88;;;10.10;;
39032;SDS011;24794;51.982;5.878;2023-07-28T00:47:26;12.20;;;10.10;;
39032;SDS011;24794;51.982;5.878;2023-07-28T00:48:26;11.30;;;8.80;;
39032;SDS011;24794;51.982;5.878;2023-07-28T00:49:27;9.63;;;8.60;;
39032;SDS011;24794;51.982;5.878;2023-07-28T00:50:27;12.88;;;7.90;;
39032;SDS011;24794;51.982;5.878;2023-07-28T00:51:29;12.25;;;8.30;;
39032;SDS011;24794;51.982;5.878;2023-07-28T00:52:31;9.45;;;8.45;;
39032;SDS011;24794;51.982;5.878;2023-07-28T00:53:32;11.35;;;9.10;;
39032;SDS011;24794;51.982;5.878;2023-07-28T00:54:33;10.35;;;9.15;;
39032;SDS011;24794;51.982;5.878;2023-07-28T00:55:34;11.10;;;9.95;;
39032;SDS011;24794;51.982;5.878;2023-07-28T00:56:34;10.88;;;9.15;;
39032;SDS011;24794;51.982;5.878;2023-07-28T00:57:35;12.07;;;8.50;;
39032;SDS011;24794;51.982;5.878;2023-07-28T00:58:35;11.52;;;8.98;;
39032;SDS011;24794;51.982;5.878;2023-07-28T00:59:36;10.40;;;9.07;;
39032;SDS011;24794;51.982;5.878;2023-07-28T01:00:36;9.80;;;8.80;;
39032;SDS011;24794;51.982;5.878;2023-07-28T01:01:37;12.57;;;8.93;;
39032;SDS011;24794;51.982;5.878;2023-07-28T01:02:38;12.38;;;8.65;;
39032;SDS011;24794;51.982;5.878;2023-07-28T01:03:38;9.75;;;8.73;;
39032;SDS011;24794;51.982;5.878;2023-07-28T01:04:39;9.70;;;8.18;;
39032;SDS011;24794;51.982;5.878;2023-07-28T01:08:02;10.82;;;8.73;;
39032;SDS011;24794;51.982;5.878;2023-07-28T01:09:15;12.40;;;8.90;;
39032;SDS011;24794;51.982;5.878;2023-07-28T01:10:22;12.23;;;10.00;;
39032;SDS011;24794;51.982;5.878;2023-07-28T01:11:29;10.60;;;9.00;;
39032;SDS011;24794;51.982;5.878;2023-07-28T01:12:29;11.02;;;9.15;;
39032;SDS011;24794;51.982;5.878;2023-07-28T01:13:30;13.10;;;9.73;;
39032;SDS011;24794;51.982;5.878;2023-07-28T01:14:30;11.80;;;9.05;;
39032;SDS011;24794;51.982;5.878;2023-07-28T01:15:31;10.43;;;9.10;;
39032;SDS011;24794;51.982;5.878;2023-07-28T01:16:31;9.55;;;8.15;;
39032;SDS011;24794;51.982;5.878;2023-07-28T01:17:32;9.77;;;8.77;;
39032;SDS011;24794;51.982;5.878;2023-07-28T01:18:33;12.73;;;9.73;;
39032;SDS011;24794;51.982;5.878;2023-07-28T01:19:33;11.13;;;9.02;;
39032;SDS011;24794;51.982;5.878;2023-07-28T01:20:34;10.85;;;8.77;;
39032;SDS011;24794;51.982;5.878;2023-07-28T01:21:37;10.65;;;9.63;;
39032;SDS011;24794;51.982;5.878;2023-07-28T01:26:38;8.63;;;7.65;;
39032;SDS011;24794;51.982;5.878;2023-07-28T01:27:39;11.50;;;7.38;;
39032;SDS011;24794;51.982;5.878;2023-07-28T01:28:42;14.18;;;9.63;;
39032;SDS011;24794;51.982;5.878;2023-07-28T01:29:44;9.85;;;8.85;;
39032;SDS011;24794;51.982;5.878;2023-07-28T01:30:45;10.25;;;8.70;;
39032;SDS011;24794;51.982;5.878;2023-07-28T01:31:46;10.45;;;9.35;;
39032;SDS011;24794;51.982;5.878;2023-07-28T01:32:47;11.40;;;9.90;;
39032;SDS011;24794;51.982;5.878;2023-07-28T01:33:48;11.73;;;9.98;;
39032;SDS011;24794;51.982;5.878;2023-07-28T01:34:49;10.75;;;8.70;;
39032;SDS011;24794;51.982;5.878;2023-07-28T01:35:49;15.23;;;10.73;;
39032;SDS011;24794;51.982;5.878;2023-07-28T01:36:50;14.02;;;9.02;;
39032;SDS011;24794;51.982;5.878;2023-07-28T01:37:50;10.77;;;8.85;;
39032;SDS011;24794;51.982;5.878;2023-07-28T01:38:51;12.68;;;9.98;;
39032;SDS011;24794;51.982;5.878;2023-07-28T01:39:51;13.77;;;10.02;;
39032;SDS011;24794;51.982;5.878;2023-07-28T01:40:52;12.40;;;9.68;;
39032;SDS011;24794;51.982;5.878;2023-07-28T01:41:53;14.23;;;11.35;;
39032;SDS011;24794;51.982;5.878;2023-07-28T01:42:53;12.90;;;9.75;;
39032;SDS011;24794;51.982;5.878;2023-07-28T01:43:54;12.80;;;9.18;;
39032;SDS011;24794;51.982;5.878;2023-07-28T01:44:55;11.98;;;9.50;;
39032;SDS011;24794;51.982;5.878;2023-07-28T01:45:56;11.77;;;9.82;;
39032;SDS011;24794;51.982;5.878;2023-07-28T01:46:56;14.35;;;10.52;;
39032;SDS011;24794;51.982;5.878;2023-07-28T01:47:57;12.10;;;10.40;;
39032;SDS011;24794;51.982;5.878;2023-07-28T01:48:57;13.52;;;10.13;;
39032;SDS011;24794;51.982;5.878;2023-07-28T01:49:58;13.43;;;10.15;;
39032;SDS011;24794;51.982;5.878;2023-07-28T01:50:58;14.88;;;11.50;;
39032;SDS011;24794;51.982;5.878;2023-07-28T01:51:59;13.07;;;11.00;;
39032;SDS011;24794;51.982;5.878;2023-07-28T01:53:00;13.60;;;10.55;;
39032;SDS011;24794;51.982;5.878;2023-07-28T01:54:00;14.63;;;10.85;;
39032;SDS011;24794;51.982;5.878;2023-07-28T01:55:01;16.88;;;11.82;;
39032;SDS011;24794;51.982;5.878;2023-07-28T01:56:01;16.42;;;10.23;;
39032;SDS011;24794;51.982;5.878;2023-07-28T01:57:02;15.82;;;11.18;;
39032;SDS011;24794;51.982;5.878;2023-07-28T01:58:02;14.57;;;11.25;;
39032;SDS011;24794;51.982;5.878;2023-07-28T01:59:03;15.82;;;11.23;;
39032;SDS011;24794;51.982;5.878;2023-07-28T02:00:04;14.77;;;10.88;;
39032;SDS011;24794;51.982;5.878;2023-07-28T02:01:05;16.65;;;11.15;;
39032;SDS011;24794;51.982;5.878;2023-07-28T02:02:05;14.52;;;10.90;;
39032;SDS011;24794;51.982;5.878;2023-07-28T02:03:06;14.30;;;10.73;;
39032;SDS011;24794;51.982;5.878;2023-07-28T02:04:07;14.13;;;10.55;;
39032;SDS011;24794;51.982;5.878;2023-07-28T02:05:07;16.00;;;11.00;;
39032;SDS011;24794;51.982;5.878;2023-07-28T02:06:08;19.25;;;11.48;;
39032;SDS011;24794;51.982;5.878;2023-07-28T02:07:09;14.07;;;10.02;;
39032;SDS011;24794;51.982;5.878;2023-07-28T02:08:09;14.93;;;10.05;;
39032;SDS011;24794;51.982;5.878;2023-07-28T02:09:10;15.93;;;9.85;;
39032;SDS011;24794;51.982;5.878;2023-07-28T02:10:10;12.32;;;10.00;;
39032;SDS011;24794;51.982;5.878;2023-07-28T02:11:11;15.25;;;10.23;;
39032;SDS011;24794;51.982;5.878;2023-07-28T02:12:11;17.17;;;11.00;;
39032;SDS011;24794;51.982;5.878;2023-07-28T02:13:12;14.70;;;10.75;;
39032;SDS011;24794;51.982;5.878;2023-07-28T02:14:12;14.55;;;10.18;;
39032;SDS011;24794;51.982;5.878;2023-07-28T02:15:13;16.75;;;10.88;;
39032;SDS011;24794;51.982;5.878;2023-07-28T02:16:13;14.30;;;9.52;;
39032;SDS011;24794;51.982;5.878;2023-07-28T02:17:14;13.55;;;9.07;;
39032;SDS011;24794;51.982;5.878;2023-07-28T02:18:14;13.43;;;10.00;;
39032;SDS011;24794;51.982;5.878;2023-07-28T02:19:15;12.65;;;9.43;;
39032;SDS011;24794;51.982;5.878;2023-07-28T02:20:15;13.98;;;9.25;;
39032;SDS011;24794;51.982;5.878;2023-07-28T02:21:16;12.82;;;9.45;;
39032;SDS011;24794;51.982;5.878;2023-07-28T02:22:16;12.40;;;8.43;;
39032;SDS011;24794;51.982;5.878;2023-07-28T02:23:17;12.43;;;9.15;;
39032;SDS011;24794;51.982;5.878;2023-07-28T02:24:17;14.68;;;9.70;;
39032;SDS011;24794;51.982;5.878;2023-07-28T02:25:18;18.40;;;11.40;;
39032;SDS011;24794;51.982;5.878;2023-07-28T02:26:18;14.55;;;10.98;;
39032;SDS011;24794;51.982;5.878;2023-07-28T02:27:19;14.07;;;10.70;;
39032;SDS011;24794;51.982;5.878;2023-07-28T02:28:19;15.02;;;9.70;;
39032;SDS011;24794;51.982;5.878;2023-07-28T02:29:20;14.95;;;9.57;;
39032;SDS011;24794;51.982;5.878;2023-07-28T02:30:20;19.10;;;10.77;;
39032;SDS011;24794;51.982;5.878;2023-07-28T02:31:21;20.58;;;14.23;;
39032;SDS011;24794;51.982;5.878;2023-07-28T02:32:22;22.50;;;13.85;;
39032;SDS011;24794;51.982;5.878;2023-07-28T02:33:22;20.95;;;12.52;;
39032;SDS011;24794;51.982;5.878;2023-07-28T02:34:23;18.10;;;11.75;;
39032;SDS011;24794;51.982;5.878;2023-07-28T02:35:23;19.23;;;12.18;;
39032;SDS011;24794;51.982;5.878;2023-07-28T02:36:24;17.45;;;12.05;;
39032;SDS011;24794;51.982;5.878;2023-07-28T02:37:24;19.33;;;12.02;;
39032;SDS011;24794;51.982;5.878;2023-07-28T02:38:25;19.33;;;12.85;;
39032;SDS011;24794;51.982;5.878;2023-07-28T02:39:26;20.75;;;12.20;;
39032;SDS011;24794;51.982;5.878;2023-07-28T02:40:26;17.83;;;12.23;;
39032;SDS011;24794;51.982;5.878;2023-07-28T02:41:27;23.73;;;14.27;;
39032;SDS011;24794;51.982;5.878;2023-07-28T02:42:27;20.67;;;14.18;;
39032;SDS011;24794;51.982;5.878;2023-07-28T02:43:28;20.05;;;13.20;;
39032;SDS011;24794;51.982;5.878;2023-07-28T02:44:28;20.33;;;12.93;;
39032;SDS011;24794;51.982;5.878;2023-07-28T02:45:29;22.77;;;14.55;;
39032;SDS011;24794;51.982;5.878;2023-07-28T02:46:30;20.27;;;12.57;;
39032;SDS011;24794;51.982;5.878;2023-07-28T02:47:30;19.73;;;12.80;;
39032;SDS011;24794;51.982;5.878;2023-07-28T02:48:31;17.83;;;11.77;;
39032;SDS011;24794;51.982;5.878;2023-07-28T02:49:31;21.23;;;12.25;;
39032;SDS011;24794;51.982;5.878;2023-07-28T02:50:31;23.80;;;14.63;;
39032;SDS011;24794;51.982;5.878;2023-07-28T02:51:32;24.67;;;15.25;;
39032;SDS011;24794;51.982;5.878;2023-07-28T02:52:35;23.90;;;14.45;;
39032;SDS011;24794;51.982;5.878;2023-07-28T02:53:36;20.33;;;14.50;;
39032;SDS011;24794;51.982;5.878;2023-07-28T02:54:37;20.58;;;12.85;;
39032;SDS011;24794;51.982;5.878;2023-07-28T02:55:40;24.23;;;15.13;;
39032;SDS011;24794;51.982;5.878;2023-07-28T02:56:44;19.80;;;14.20;;
39032;SDS011;24794;51.982;5.878;2023-07-28T02:57:45;22.40;;;14.60;;
39032;SDS011;24794;51.982;5.878;2023-07-28T02:58:45;20.52;;;13.75;;
39032;SDS011;24794;51.982;5.878;2023-07-28T02:59:46;24.05;;;14.13;;
39032;SDS011;24794;51.982;5.878;2023-07-28T03:00:46;21.38;;;13.48;;
39032;SDS011;24794;51.982;5.878;2023-07-28T03:01:47;25.55;;;14.88;;
39032;SDS011;24794;51.982;5.878;2023-07-28T03:02:47;20.48;;;13.23;;
39032;SDS011;24794;51.982;5.878;2023-07-28T03:03:48;22.65;;;14.65;;
39032;SDS011;24794;51.982;5.878;2023-07-28T03:04:48;27.95;;;14.60;;
39032;SDS011;24794;51.982;5.878;2023-07-28T03:05:51;22.65;;;14.77;;
39032;SDS011;24794;51.982;5.878;2023-07-28T03:06:52;27.65;;;14.88;;
39032;SDS011;24794;51.982;5.878;2023-07-28T03:07:52;23.95;;;14.70;;
39032;SDS011;24794;51.982;5.878;2023-07-28T03:08:53;22.48;;;14.05;;
39032;SDS011;24794;51.982;5.878;2023-07-28T03:09:54;20.90;;;12.98;;
39032;SDS011;24794;51.982;5.878;2023-07-28T03:10:58;23.60;;;14.52;;
39032;SDS011;24794;51.982;5.878;2023-07-28T03:11:58;23.05;;;14.25;;
39032;SDS011;24794;51.982;5.878;2023-07-28T03:12:59;20.63;;;12.90;;
39032;SDS011;24794;51.982;5.878;2023-07-28T03:14:00;27.27;;;15.30;;
39032;SDS011;24794;51.982;5.878;2023-07-28T03:15:00;22.75;;;14.68;;
39032;SDS011;24794;51.982;5.878;2023-07-28T03:16:00;23.30;;;14.73;;
39032;SDS011;24794;51.982;5.878;2023-07-28T03:17:01;24.67;;;13.80;;
39032;SDS011;24794;51.982;5.878;2023-07-28T03:18:02;22.95;;;14.35;;
39032;SDS011;24794;51.982;5.878;2023-07-28T03:19:02;25.15;;;15.13;;
39032;SDS011;24794;51.982;5.878;2023-07-28T03:20:03;23.95;;;13.98;;
39032;SDS011;24794;51.982;5.878;2023-07-28T03:21:04;25.48;;;14.68;;
39032;SDS011;24794;51.982;5.878;2023-07-28T03:22:05;26.50;;;15.98;;
39032;SDS011;24794;51.982;5.878;2023-07-28T03:23:05;24.83;;;15.13;;
39032;SDS011;24794;51.982;5.878;2023-07-28T03:24:06;29.13;;;16.38;;
39032;SDS011;24794;51.982;5.878;2023-07-28T03:25:06;25.05;;;14.77;;
39032;SDS011;24794;51.982;5.878;2023-07-28T03:26:07;28.13;;;14.95;;
39032;SDS011;24794;51.982;5.878;2023-07-28T03:27:07;27.67;;;15.45;;
39032;SDS011;24794;51.982;5.878;2023-07-28T03:28:08;28.05;;;14.68;;
39032;SDS011;24794;51.982;5.878;2023-07-28T03:29:08;25.98;;;14.40;;
39032;SDS011;24794;51.982;5.878;2023-07-28T03:30:09;25.10;;;14.40;;
39032;SDS011;24794;51.982;5.878;2023-07-28T03:31:10;28.55;;;15.95;;
39032;SDS011;24794;51.982;5.878;2023-07-28T03:32:11;24.70;;;14.90;;
39032;SDS011;24794;51.982;5.878;2023-07-28T03:33:11;26.27;;;14.23;;
39032;SDS011;24794;51.982;5.878;2023-07-28T03:34:12;27.95;;;15.13;;
39032;SDS011;24794;51.982;5.878;2023-07-28T03:35:12;31.23;;;15.82;;
39032;SDS011;24794;51.982;5.878;2023-07-28T03:36:13;23.52;;;15.27;;
39032;SDS011;24794;51.982;5.878;2023-07-28T03:37:14;27.20;;;14.65;;
39032;SDS011;24794;51.982;5.878;2023-07-28T03:38:14;26.90;;;14.85;;
39032;SDS011;24794;51.982;5.878;2023-07-28T03:39:15;28.42;;;13.50;;
39032;SDS011;24794;51.982;5.878;2023-07-28T03:40:16;23.23;;;14.05;;
39032;SDS011;24794;51.982;5.878;2023-07-28T03:41:16;27.52;;;15.38;;
39032;SDS011;24794;51.982;5.878;2023-07-28T03:42:17;27.30;;;15.10;;
39032;SDS011;24794;51.982;5.878;2023-07-28T03:43:17;24.45;;;14.98;;
39032;SDS011;24794;51.982;5.878;2023-07-28T03:44:18;30.33;;;17.50;;
39032;SDS011;24794;51.982;5.878;2023-07-28T03:45:19;30.05;;;16.42;;
39032;SDS011;24794;51.982;5.878;2023-07-28T03:46:20;28.92;;;16.17;;
39032;SDS011;24794;51.982;5.878;2023-07-28T03:47:20;29.27;;;16.33;;
39032;SDS011;24794;51.982;5.878;2023-07-28T03:48:21;24.13;;;15.60;;
39032;SDS011;24794;51.982;5.878;2023-07-28T03:49:21;30.80;;;17.00;;
39032;SDS011;24794;51.982;5.878;2023-07-28T03:50:22;25.45;;;15.80;;
39032;SDS011;24794;51.982;5.878;2023-07-28T03:51:24;32.33;;;15.75;;
39032;SDS011;24794;51.982;5.878;2023-07-28T03:52:24;31.60;;;17.05;;
39032;SDS011;24794;51.982;5.878;2023-07-28T03:53:25;30.50;;;17.00;;
39032;SDS011;24794;51.982;5.878;2023-07-28T03:54:25;42.35;;;21.45;;
39032;SDS011;24794;51.982;5.878;2023-07-28T03:55:26;31.05;;;17.90;;
39032;SDS011;24794;51.982;5.878;2023-07-28T03:56:26;35.60;;;18.63;;
39032;SDS011;24794;51.982;5.878;2023-07-28T03:57:28;35.80;;;17.48;;
39032;SDS011;24794;51.982;5.878;2023-07-28T03:58:28;36.00;;;17.92;;
39032;SDS011;24794;51.982;5.878;2023-07-28T03:59:29;42.00;;;19.63;;
39032;SDS011;24794;51.982;5.878;2023-07-28T04:00:29;34.38;;;18.10;;
39032;SDS011;24794;51.982;5.878;2023-07-28T04:01:30;33.65;;;17.42;;
39032;SDS011;24794;51.982;5.878;2023-07-28T04:02:31;37.22;;;18.17;;
39032;SDS011;24794;51.982;5.878;2023-07-28T04:03:31;38.20;;;18.70;;
39032;SDS011;24794;51.982;5.878;2023-07-28T04:04:32;40.22;;;19.33;;
39032;SDS011;24794;51.982;5.878;2023-07-28T04:05:32;44.20;;;20.58;;
39032;SDS011;24794;51.982;5.878;2023-07-28T04:06:45;39.65;;;19.35;;
39032;SDS011;24794;51.982;5.878;2023-07-28T04:07:46;44.85;;;21.10;;
39032;SDS011;24794;51.982;5.878;2023-07-28T04:08:47;43.28;;;20.70;;
39032;SDS011;24794;51.982;5.878;2023-07-28T04:09:47;42.90;;;21.27;;
39032;SDS011;24794;51.982;5.878;2023-07-28T04:10:48;45.65;;;21.25;;
39032;SDS011;24794;51.982;5.878;2023-07-28T04:11:49;49.25;;;21.17;;
39032;SDS011;24794;51.982;5.878;2023-07-28T04:12:49;50.20;;;22.88;;
39032;SDS011;24794;51.982;5.878;2023-07-28T04:13:50;40.90;;;21.35;;
39032;SDS011;24794;51.982;5.878;2023-07-28T04:14:50;41.17;;;19.70;;
39032;SDS011;24794;51.982;5.878;2023-07-28T04:15:51;51.20;;;21.75;;
39032;SDS011;24794;51.982;5.878;2023-07-28T04:16:51;44.10;;;20.30;;
39032;SDS011;24794;51.982;5.878;2023-07-28T04:17:52;47.20;;;21.85;;
39032;SDS011;24794;51.982;5.878;2023-07-28T04:18:53;39.25;;;20.55;;
39032;SDS011;24794;51.982;5.878;2023-07-28T04:19:53;48.55;;;20.20;;
39032;SDS011;24794;51.982;5.878;2023-07-28T04:20:54;56.65;;;22.75;;
39032;SDS011;24794;51.982;5.878;2023-07-28T04:21:54;39.28;;;19.05;;
39032;SDS011;24794;51.982;5.878;2023-07-28T04:22:56;38.47;;;18.98;;
39032;SDS011;24794;51.982;5.878;2023-07-28T04:23:56;51.50;;;20.70;;
39032;SDS011;24794;51.982;5.878;2023-07-28T04:24:57;44.10;;;21.02;;
39032;SDS011;24794;51.982;5.878;2023-07-28T04:25:58;41.33;;;20.25;;
39032;SDS011;24794;51.982;5.878;2023-07-28T04:26:58;39.45;;;20.08;;
39032;SDS011;24794;51.982;5.878;2023-07-28T04:27:59;40.30;;;19.92;;
39032;SDS011;24794;51.982;5.878;2023-07-28T04:28:59;40.95;;;20.83;;
39032;SDS011;24794;51.982;5.878;2023-07-28T04:30:00;46.40;;;19.60;;
39032;SDS011;24794;51.982;5.878;2023-07-28T04:31:01;39.45;;;20.05;;
39032;SDS011;24794;51.982;5.878;2023-07-28T04:32:01;50.85;;;22.77;;
39032;SDS011;24794;51.982;5.878;2023-07-28T04:33:02;39.17;;;19.23;;
39032;SDS011;24794;51.982;5.878;2023-07-28T04:34:02;50.70;;;22.88;;
39032;SDS011;24794;51.982;5.878;2023-07-28T04:35:03;47.45;;;21.40;;
39032;SDS011;24794;51.982;5.878;2023-07-28T04:36:05;43.85;;;20.65;;
39032;SDS011;24794;51.982;5.878;2023-07-28T04:37:05;57.13;;;24.08;;
39032;SDS011;24794;51.982;5.878;2023-07-28T04:38:06;49.60;;;21.40;;
39032;SDS011;24794;51.982;5.878;2023-07-28T04:39:06;48.60;;;22.65;;
39032;SDS011;24794;51.982;5.878;2023-07-28T04:40:07;45.63;;;21.17;;
39032;SDS011;24794;51.982;5.878;2023-07-28T04:41:09;43.17;;;21.17;;
39032;SDS011;24794;51.982;5.878;2023-07-28T04:42:09;43.55;;;20.05;;
39032;SDS011;24794;51.982;5.878;2023-07-28T04:43:10;54.70;;;22.60;;
39032;SDS011;24794;51.982;5.878;2023-07-28T04:44:10;48.95;;;21.88;;
39032;SDS011;24794;51.982;5.878;2023-07-28T04:45:11;43.22;;;21.30;;
39032;SDS011;24794;51.982;5.878;2023-07-28T04:46:11;49.97;;;20.83;;
39032;SDS011;24794;51.982;5.878;2023-07-28T04:47:12;51.55;;;21.98;;
39032;SDS011;24794;51.982;5.878;2023-07-28T04:48:12;48.78;;;22.10;;
39032;SDS011;24794;51.982;5.878;2023-07-28T04:49:13;42.55;;;21.70;;
39032;SDS011;24794;51.982;5.878;2023-07-28T04:50:14;45.00;;;20.35;;
39032;SDS011;24794;51.982;5.878;2023-07-28T04:51:14;37.67;;;19.85;;
39032;SDS011;24794;51.982;5.878;2023-07-28T04:52:15;52.28;;;22.55;;
39032;SDS011;24794;51.982;5.878;2023-07-28T04:53:15;43.85;;;20.65;;
39032;SDS011;24794;51.982;5.878;2023-07-28T04:54:15;46.45;;;21.25;;
39032;SDS011;24794;51.982;5.878;2023-07-28T04:55:16;47.63;;;21.20;;
39032;SDS011;24794;51.982;5.878;2023-07-28T04:56:16;42.97;;;21.77;;
39032;SDS011;24794;51.982;5.878;2023-07-28T04:57:18;45.50;;;20.50;;
39032;SDS011;24794;51.982;5.878;2023-07-28T04:58:19;40.67;;;19.27;;
39032;SDS011;24794;51.982;5.878;2023-07-28T04:59:19;36.47;;;19.27;;
39032;SDS011;24794;51.982;5.878;2023-07-28T05:00:20;53.38;;;21.92;;
39032;SDS011;24794;51.982;5.878;2023-07-28T05:01:21;41.70;;;21.17;;
39032;SDS011;24794;51.982;5.878;2023-07-28T05:02:21;44.17;;;21.30;;
39032;SDS011;24794;51.982;5.878;2023-07-28T05:03:21;42.53;;;21.23;;
39032;SDS011;24794;51.982;5.878;2023-07-28T05:04:22;44.50;;;21.55;;
39032;SDS011;24794;51.982;5.878;2023-07-28T05:05:22;45.83;;;21.73;;
39032;SDS011;24794;51.982;5.878;2023-07-28T05:06:23;50.28;;;23.02;;
39032;SDS011;24794;51.982;5.878;2023-07-28T05:07:23;54.28;;;22.50;;
39032;SDS011;24794;51.982;5.878;2023-07-28T05:08:24;45.10;;;21.52;;
39032;SDS011;24794;51.982;5.878;2023-07-28T05:09:25;58.15;;;25.23;;
39032;SDS011;24794;51.982;5.878;2023-07-28T05:10:28;62.55;;;24.67;;
39032;SDS011;24794;51.982;5.878;2023-07-28T05:11:28;64.05;;;25.73;;
39032;SDS011;24794;51.982;5.878;2023-07-28T05:12:29;51.30;;;23.55;;
39032;SDS011;24794;51.982;5.878;2023-07-28T05:13:29;45.42;;;22.45;;
39032;SDS011;24794;51.982;5.878;2023-07-28T05:14:30;46.63;;;21.40;;
39032;SDS011;24794;51.982;5.878;2023-07-28T05:15:30;48.22;;;21.15;;
39032;SDS011;24794;51.982;5.878;2023-07-28T05:16:30;53.47;;;23.80;;
39032;SDS011;24794;51.982;5.878;2023-07-28T05:17:31;50.70;;;23.33;;
39032;SDS011;24794;51.982;5.878;2023-07-28T05:18:32;56.75;;;24.60;;
39032;SDS011;24794;51.982;5.878;2023-07-28T05:19:32;51.53;;;23.77;;
39032;SDS011;24794;51.982;5.878;2023-07-28T05:20:33;49.70;;;24.20;;
39032;SDS011;24794;51.982;5.878;2023-07-28T05:21:33;53.63;;;23.50;;
39032;SDS011;24794;51.982;5.878;2023-07-28T05:22:34;56.63;;;25.20;;
39032;SDS011;24794;51.982;5.878;2023-07-28T05:23:34;59.17;;;24.52;;
39032;SDS011;24794;51.982;5.878;2023-07-28T05:24:35;56.45;;;24.25;;
39032;SDS011;24794;51.982;5.878;2023-07-28T05:25:36;52.10;;;23.40;;
39032;SDS011;24794;51.982;5.878;2023-07-28T05:26:36;51.70;;;24.50;;
39032;SDS011;24794;51.982;5.878;2023-07-28T05:27:37;61.47;;;26.42;;
39032;SDS011;24794;51.982;5.878;2023-07-28T05:28:37;60.33;;;27.08;;
39032;SDS011;24794;51.982;5.878;2023-07-28T05:29:38;61.08;;;25.92;;
39032;SDS011;24794;51.982;5.878;2023-07-28T05:30:38;60.67;;;25.35;;
39032;SDS011;24794;51.982;5.878;2023-07-28T05:31:39;59.92;;;24.70;;
39032;SDS011;24794;51.982;5.878;2023-07-28T05:32:39;63.85;;;27.48;;
39032;SDS011;24794;51.982;5.878;2023-07-28T05:33:40;59.20;;;25.42;;
39032;SDS011;24794;51.982;5.878;2023-07-28T05:34:43;57.55;;;24.55;;
39032;SDS011;24794;51.982;5.878;2023-07-28T05:35:44;53.90;;;25.17;;
39032;SDS011;24794;51.982;5.878;2023-07-28T05:36:45;50.15;;;23.88;;
39032;SDS011;24794;51.982;5.878;2023-07-28T05:37:45;63.05;;;25.83;;
39032;SDS011;24794;51.982;5.878;2023-07-28T05:38:46;60.38;;;24.77;;
39032;SDS011;24794;51.982;5.878;2023-07-28T05:39:46;51.15;;;24.70;;
39032;SDS011;24794;51.982;5.878;2023-07-28T05:40:55;54.97;;;24.90;;
39032;SDS011;24794;51.982;5.878;2023-07-28T05:41:56;58.45;;;24.33;;
39032;SDS011;24794;51.982;5.878;2023-07-28T05:42:57;60.55;;;25.58;;
39032;SDS011;24794;51.982;5.878;2023-07-28T05:43:57;55.22;;;23.52;;
39032;SDS011;24794;51.982;5.878;2023-07-28T05:44:58;50.17;;;22.92;;
39032;SDS011;24794;51.982;5.878;2023-07-28T05:45:59;50.83;;;23.70;;
39032;SDS011;24794;51.982;5.878;2023-07-28T05:47:00;52.13;;;24.33;;
39032;SDS011;24794;51.982;5.878;2023-07-28T05:48:00;53.95;;;22.70;;
39032;SDS011;24794;51.982;5.878;2023-07-28T05:49:01;54.10;;;24.15;;
39032;SDS011;24794;51.982;5.878;2023-07-28T05:50:02;55.03;;;23.45;;
39032;SDS011;24794;51.982;5.878;2023-07-28T05:51:02;56.83;;;25.42;;
39032;SDS011;24794;51.982;5.878;2023-07-28T05:52:03;53.47;;;24.27;;
39032;SDS011;24794;51.982;5.878;2023-07-28T05:53:04;50.92;;;23.25;;
39032;SDS011;24794;51.982;5.878;2023-07-28T05:54:04;49.05;;;23.60;;
39032;SDS011;24794;51.982;5.878;2023-07-28T05:55:05;53.35;;;23.15;;
39032;SDS011;24794;51.982;5.878;2023-07-28T05:56:06;48.40;;;23.48;;
39032;SDS011;24794;51.982;5.878;2023-07-28T05:57:06;45.75;;;22.15;;
39032;SDS011;24794;51.982;5.878;2023-07-28T05:58:07;40.13;;;19.95;;
39032;SDS011;24794;51.982;5.878;2023-07-28T05:59:07;46.72;;;22.15;;
39032;SDS011;24794;51.982;5.878;2023-07-28T06:00:08;42.72;;;20.35;;
39032;SDS011;24794;51.982;5.878;2023-07-28T06:01:09;46.60;;;21.73;;
39032;SDS011;24794;51.982;5.878;2023-07-28T06:02:10;37.63;;;19.20;;
39032;SDS011;24794;51.982;5.878;2023-07-28T06:03:10;41.80;;;19.40;;
39032;SDS011;24794;51.982;5.878;2023-07-28T06:04:12;44.20;;;21.88;;